Time;durP1;ratioP1;P1;durP2;ratioP2;P2;SDS_P1;SDS_P2;PMS_P1;PMS_P2;Temp;Humidity;BMP_temperature;BMP_pressure;BME280_temperature;BME280_humidity;BME280_pressure;Samples;Min_cycle;Max_cycle;Signal;HPM_P1;HPM_P2
2021/09/28 00:00:13;;;;;;;23.77;17.05;;;487.20;2380.80;;;;;;4853483;29;20028;-88
2021/09/28 00:02:39;;;;;;;26.30;19.02;;;487.20;2380.80;;;;;;4852141;29;20038;-79
2021/09/28 00:05:07;;;;;;;30.92;17.92;;;512.20;2380.80;;;;;;4867701;29;20034;-89
2021/09/28 00:07:32;;;;;;;30.85;19.73;;;487.30;2380.80;;;;;;4867523;29;20040;-88
2021/09/28 00:09:58;;;;;;;32.22;20.08;;;487.30;2380.80;;;;;;4848738;29;20025;-85
2021/09/28 00:12:24;;;;;;;31.20;20.00;;;487.20;2380.80;;;;;;4870280;29;20080;-87
2021/09/28 00:14:49;;;;;;;27.83;18.85;;;487.30;2380.80;;;;;;4875775;29;20513;-89
2021/09/28 00:17:15;;;;;;;31.15;18.55;;;487.30;2380.80;;;;;;4890101;29;20396;-87
2021/09/28 00:19:41;;;;;;;28.98;18.98;;;487.20;2380.80;;;;;;4890652;29;20448;-88
2021/09/28 00:22:07;;;;;;;29.40;19.75;;;487.20;2380.80;;;;;;4889812;29;20039;-90
2021/09/28 00:24:35;;;;;;;29.00;19.75;;;487.30;2380.80;;;;;;4892102;29;20025;-89
2021/09/28 00:27:01;;;;;;;28.92;18.88;;;487.20;2380.80;;;;;;4875635;29;20025;-84
2021/09/28 00:29:27;;;;;;;27.30;19.25;;;487.20;2380.80;;;;;;4892100;29;20097;-89
2021/09/28 00:31:53;;;;;;;31.50;18.88;;;487.10;2380.80;;;;;;4887851;29;20025;-87
2021/09/28 00:34:19;;;;;;;30.65;19.35;;;487.10;2380.80;;;;;;4873748;29;20016;-86
2021/09/28 00:36:45;;;;;;;27.90;17.40;;;487.10;2380.80;;;;;;4889176;29;20037;-84
2021/09/28 00:39:10;;;;;;;22.65;16.17;;;487.00;2380.80;;;;;;4889495;29;20020;-90
2021/09/28 00:41:36;;;;;;;26.30;16.83;;;487.00;2380.80;;;;;;4874294;29;20537;-89
2021/09/28 00:44:02;;;;;;;22.42;15.57;;;487.00;2380.80;;;;;;4888808;29;20528;-84
2021/09/28 00:46:28;;;;;;;20.48;16.15;;;487.10;2380.80;;;;;;4888559;29;20071;-90
2021/09/28 00:48:53;;;;;;;24.20;15.68;;;487.10;2380.80;;;;;;4889055;29;20021;-80
2021/09/28 00:51:20;;;;;;;23.23;15.77;;;487.10;2380.80;;;;;;4889952;29;20044;-81
2021/09/28 00:53:49;;;;;;;18.77;15.35;;;487.00;2380.80;;;;;;4888585;29;20013;-83
2021/09/28 00:56:18;;;;;;;22.35;16.13;;;487.00;2380.80;;;;;;4886187;29;20081;-87
2021/09/28 00:58:44;;;;;;;22.00;15.57;;;487.00;2380.80;;;;;;4868338;29;20036;-88
2021/09/28 01:01:11;;;;;;;23.58;15.25;;;487.10;2380.80;;;;;;4889070;29;20486;-87
2021/09/28 01:03:37;;;;;;;28.85;17.00;;;487.10;2380.80;;;;;;4886700;29;20040;-82
2021/09/28 01:06:03;;;;;;;29.77;16.92;;;487.10;2380.80;;;;;;4889569;29;20029;-77
2021/09/28 01:08:29;;;;;;;27.52;18.52;;;487.00;2380.80;;;;;;4871381;29;20035;-84
2021/09/28 01:10:56;;;;;;;27.52;17.17;;;487.10;2380.80;;;;;;4891051;29;20029;-84
2021/09/28 01:13:23;;;;;;;22.92;16.42;;;487.10;2380.80;;;;;;4888507;29;20124;-80
2021/09/28 01:16:00;;;;;;;23.30;16.00;;;487.00;2380.80;;;;;;4888737;29;20076;-82
2021/09/28 01:18:34;;;;;;;23.65;16.55;;;487.00;2380.80;;;;;;4878905;29;20037;-79
2021/09/28 01:21:01;;;;;;;26.40;15.50;;;487.10;2380.80;;;;;;4888966;29;20021;-82
2021/09/28 01:23:27;;;;;;;22.45;13.90;;;487.10;2380.80;;;;;;4888717;29;20025;-78
2021/09/28 01:25:53;;;;;;;23.45;16.15;;;487.20;2380.80;;;;;;4884621;29;20043;-81
2021/09/28 01:28:18;;;;;;;21.15;15.02;;;487.10;2380.80;;;;;;4888937;29;20466;-84
2021/09/28 01:30:44;;;;;;;20.45;13.75;;;487.00;2380.80;;;;;;4872294;29;20021;-82
2021/09/28 01:33:11;;;;;;;20.10;13.30;;;487.10;2380.80;;;;;;4870837;29;20128;-77
2021/09/28 01:35:39;;;;;;;18.63;13.82;;;487.10;2380.80;;;;;;4885764;29;20485;-81
2021/09/28 01:38:05;;;;;;;20.98;13.30;;;487.10;2380.80;;;;;;4871457;29;20084;-84
2021/09/28 01:40:31;;;;;;;22.33;13.77;;;487.20;2380.80;;;;;;4887913;29;20057;-78
2021/09/28 01:43:04;;;;;;;17.80;13.32;;;487.20;2380.80;;;;;;4889271;29;20492;-82
2021/09/28 01:45:29;;;;;;;16.45;12.27;;;487.20;2380.80;;;;;;4868048;29;20053;-81
2021/09/28 01:47:55;;;;;;;20.52;14.45;;;487.20;2380.80;;;;;;4887090;29;20049;-81
2021/09/28 01:50:21;;;;;;;19.98;13.65;;;487.20;2380.80;;;;;;4887502;29;20029;-83
2021/09/28 01:52:46;;;;;;;16.48;12.57;;;487.20;2380.80;;;;;;4870548;29;20035;-80
2021/09/28 01:55:12;;;;;;;21.13;12.65;;;487.10;2380.80;;;;;;4889870;29;20057;-80
2021/09/28 01:57:38;;;;;;;20.35;12.35;;;487.10;2380.80;;;;;;4889218;29;20032;-82
2021/09/28 02:00:04;;;;;;;16.23;12.68;;;487.10;2380.80;;;;;;4871773;29;20069;-83
2021/09/28 02:02:30;;;;;;;17.80;12.35;;;487.10;2380.80;;;;;;4888204;29;20056;-84
2021/09/28 02:04:55;;;;;;;19.85;11.95;;;487.20;2380.80;;;;;;4870559;29;20453;-78
2021/09/28 02:07:21;;;;;;;18.98;11.48;;;487.10;2380.80;;;;;;4889385;29;20112;-81
2021/09/28 02:09:46;;;;;;;20.83;13.07;;;487.20;2380.80;;;;;;4887727;29;20100;-86
2021/09/28 02:12:12;;;;;;;17.13;12.48;;;487.20;2380.80;;;;;;4890100;29;20071;-83
2021/09/28 02:14:38;;;;;;;14.80;12.57;;;487.10;2380.80;;;;;;4890143;29;20423;-85
2021/09/28 02:17:04;;;;;;;15.90;11.15;;;487.10;2380.80;;;;;;4889245;29;20096;-85
2021/09/28 02:19:29;;;;;;;15.82;11.95;;;487.10;2380.80;;;;;;4887998;29;20031;-81
2021/09/28 02:21:55;;;;;;;18.83;13.30;;;487.00;2380.80;;;;;;4889381;29;20092;-83
2021/09/28 02:24:21;;;;;;;15.50;12.05;;;487.10;2380.80;;;;;;4869874;29;20067;-84
2021/09/28 02:26:47;;;;;;;14.95;11.75;;;487.00;2380.80;;;;;;4874384;29;20028;-84
2021/09/28 02:29:12;;;;;;;17.05;11.88;;;487.00;2380.80;;;;;;4888547;29;20115;-84
2021/09/28 02:31:39;;;;;;;22.15;13.75;;;487.00;2380.80;;;;;;4887302;29;20456;-83
2021/09/28 02:34:10;;;;;;;19.33;12.70;;;487.00;2380.80;;;;;;4880888;29;20071;-83
2021/09/28 02:36:37;;;;;;;19.83;11.98;;;487.00;2380.80;;;;;;4873740;29;20044;-83
2021/09/28 02:39:05;;;;;;;18.40;12.45;;;487.00;2380.80;;;;;;4890081;29;20077;-84
2021/09/28 02:41:31;;;;;;;19.33;11.93;;;487.00;2380.80;;;;;;4884843;29;20025;-83
2021/09/28 02:43:57;;;;;;;18.17;11.70;;;487.00;2380.80;;;;;;4886282;29;20094;-84
2021/09/28 02:46:23;;;;;;;18.05;11.75;;;487.00;2380.80;;;;;;4872387;29;20020;-80
2021/09/28 02:48:48;;;;;;;14.05;10.55;;;487.00;2380.80;;;;;;4870081;29;20440;-84
2021/09/28 02:51:14;;;;;;;15.55;10.82;;;487.10;2380.80;;;;;;4872485;29;20029;-83
2021/09/28 02:53:40;;;;;;;18.88;11.60;;;487.10;2380.80;;;;;;4888613;29;20085;-84
2021/09/28 02:56:06;;;;;;;17.08;11.07;;;487.10;2380.80;;;;;;4888043;29;20041;-81
2021/09/28 02:58:31;;;;;;;17.80;11.80;;;487.10;2380.80;;;;;;4889951;29;20036;-84
2021/09/28 03:00:57;;;;;;;13.50;11.15;;;487.10;2380.80;;;;;;4888973;29;20145;-84
2021/09/28 03:03:23;;;;;;;14.43;11.07;;;487.10;2380.80;;;;;;4873394;29;20029;-81
2021/09/28 03:05:49;;;;;;;17.95;11.13;;;487.10;2380.80;;;;;;4889417;29;20028;-78
2021/09/28 03:08:15;;;;;;;15.52;11.50;;;487.20;2380.80;;;;;;4886817;29;20025;-83
2021/09/28 03:10:43;;;;;;;18.40;11.98;;;487.20;2380.80;;;;;;4887811;29;20017;-83
2021/09/28 03:13:10;;;;;;;15.73;10.82;;;487.10;2380.80;;;;;;4884878;29;20050;-81
2021/09/28 03:15:36;;;;;;;15.88;11.75;;;487.10;2380.80;;;;;;4869559;29;20023;-84
2021/09/28 03:18:02;;;;;;;14.95;10.75;;;487.10;2380.80;;;;;;4867478;29;20403;-84
2021/09/28 03:20:28;;;;;;;15.43;11.88;;;487.10;2380.80;;;;;;4869948;29;20045;-84
2021/09/28 03:22:54;;;;;;;14.35;11.02;;;487.20;2380.80;;;;;;4868675;29;20026;-84
2021/09/28 03:25:20;;;;;;;13.38;10.65;;;487.20;2380.80;;;;;;4882932;29;20077;-79
2021/09/28 03:27:46;;;;;;;14.77;11.90;;;487.20;2380.80;;;;;;4868908;29;20021;-84
2021/09/28 03:30:12;;;;;;;15.15;11.45;;;487.20;2380.80;;;;;;4867986;29;20025;-81
2021/09/28 03:32:38;;;;;;;13.23;10.63;;;487.20;2380.80;;;;;;4868390;29;20623;-82
2021/09/28 03:35:08;;;;;;;18.15;11.20;;;487.20;2380.80;;;;;;4869620;29;20033;-84
2021/09/28 03:37:36;;;;;;;18.30;12.02;;;487.20;2380.80;;;;;;4865856;29;20030;-82
2021/09/28 03:40:04;;;;;;;14.55;10.95;;;487.10;2380.80;;;;;;4868432;29;20033;-79
2021/09/28 03:42:30;;;;;;;15.80;12.32;;;487.10;2380.80;;;;;;4871983;29;20032;-81
2021/09/28 03:44:56;;;;;;;17.40;12.68;;;487.10;2380.80;;;;;;4873722;29;20025;-85
2021/09/28 03:47:21;;;;;;;20.77;12.82;;;487.10;2380.80;;;;;;4871344;29;20052;-83
2021/09/28 03:49:47;;;;;;;17.13;11.98;;;487.10;2380.80;;;;;;4871526;29;20033;-83
2021/09/28 03:52:13;;;;;;;16.75;12.10;;;487.20;2380.80;;;;;;4862885;29;20025;-81
2021/09/28 03:54:39;;;;;;;16.38;12.13;;;487.10;2380.80;;;;;;4869911;29;20033;-84
2021/09/28 03:57:04;;;;;;;17.42;12.63;;;487.10;2380.80;;;;;;4870347;29;20037;-83
2021/09/28 03:59:30;;;;;;;16.73;11.63;;;487.10;2380.80;;;;;;4870772;29;20112;-78
2021/09/28 04:01:56;;;;;;;15.50;11.82;;;487.10;2380.80;;;;;;4873429;29;20474;-78
2021/09/28 04:04:21;;;;;;;18.27;13.43;;;487.10;2380.80;;;;;;4871122;29;20394;-76
2021/09/28 04:06:47;;;;;;;16.50;13.18;;;487.10;2380.80;;;;;;4870808;29;20017;-77
2021/09/28 04:09:13;;;;;;;23.33;14.15;;;487.10;2380.80;;;;;;4872377;29;20473;-83
2021/09/28 04:11:39;;;;;;;19.05;13.52;;;487.10;2380.80;;;;;;4865102;29;20482;-80
2021/09/28 04:14:06;;;;;;;20.90;14.35;;;487.10;2380.80;;;;;;4870413;29;20082;-76
2021/09/28 04:16:32;;;;;;;18.17;12.93;;;487.10;2380.80;;;;;;4869128;29;20038;-78
2021/09/28 04:18:58;;;;;;;18.73;12.45;;;487.10;2380.80;;;;;;4871627;29;20072;-79
2021/09/28 04:21:27;;;;;;;17.58;13.35;;;487.10;2380.80;;;;;;4871885;29;20048;-83
2021/09/28 04:23:53;;;;;;;18.75;13.77;;;487.10;2380.80;;;;;;4872960;29;20033;-82
2021/09/28 04:26:19;;;;;;;17.38;12.90;;;487.00;2380.80;;;;;;4872978;29;20033;-80
2021/09/28 04:28:45;;;;;;;19.88;15.38;;;487.00;2380.80;;;;;;4870522;29;20100;-81
2021/09/28 04:31:14;;;;;;;19.92;14.63;;;487.00;2380.80;;;;;;4869198;29;20033;-78
2021/09/28 04:33:40;;;;;;;21.42;14.85;;;487.00;2380.80;;;;;;4871785;29;20059;-84
2021/09/28 04:36:06;;;;;;;19.83;15.75;;;487.00;2380.80;;;;;;4866922;29;20057;-81
2021/09/28 04:38:32;;;;;;;19.88;14.65;;;487.00;2380.80;;;;;;4869974;29;20034;-82
2021/09/28 04:40:58;;;;;;;18.73;14.25;;;487.00;2380.80;;;;;;4872017;29;20026;-76
2021/09/28 04:43:24;;;;;;;21.80;14.63;;;487.10;2380.80;;;;;;4871122;29;20090;-78
2021/09/28 04:45:50;;;;;;;20.63;14.70;;;487.10;2380.80;;;;;;4871363;29;20026;-81
2021/09/28 04:48:16;;;;;;;21.13;15.10;;;487.10;2380.80;;;;;;4872842;29;20023;-80
2021/09/28 04:50:41;;;;;;;24.33;17.52;;;487.10;2380.80;;;;;;4863570;29;20395;-77
2021/09/28 04:53:07;;;;;;;24.20;15.88;;;487.10;2380.80;;;;;;4860951;29;20038;-81
2021/09/28 04:55:55;;;;;;;24.73;17.48;;;487.10;2380.80;;;;;;4862848;29;20118;-80
2021/09/28 04:58:26;;;;;;;26.52;16.15;;;487.10;2380.80;;;;;;4852059;29;20037;-81
2021/09/28 05:00:53;;;;;;;23.40;16.23;;;487.10;2380.80;;;;;;4860450;29;20052;-79
2021/09/28 05:03:18;;;;;;;25.30;16.45;;;487.10;2380.80;;;;;;4861394;29;20033;-79
2021/09/28 05:05:45;;;;;;;23.98;16.73;;;487.10;2380.80;;;;;;4860308;29;20037;-81
2021/09/28 05:08:11;;;;;;;23.15;15.68;;;487.10;2380.80;;;;;;4860569;29;20056;-79
2021/09/28 05:10:37;;;;;;;26.95;17.13;;;487.10;2380.80;;;;;;4861688;29;20029;-80
2021/09/28 05:13:05;;;;;;;23.95;15.25;;;487.10;2380.80;;;;;;4863295;29;20044;-82
2021/09/28 05:15:32;;;;;;;24.35;16.77;;;487.10;2380.80;;;;;;4880234;29;20033;-83
2021/09/28 05:17:58;;;;;;;23.15;16.77;;;487.10;2380.80;;;;;;4880093;29;20139;-81
2021/09/28 05:20:24;;;;;;;25.90;17.40;;;487.10;2380.80;;;;;;4880125;29;20044;-83
2021/09/28 05:22:49;;;;;;;22.95;16.42;;;487.10;2380.80;;;;;;4880590;29;20157;-81
2021/09/28 05:25:15;;;;;;;25.63;17.23;;;487.10;2380.80;;;;;;4893227;29;20100;-81
2021/09/28 05:27:41;;;;;;;26.35;18.42;;;487.10;2380.80;;;;;;4880333;29;20044;-77
2021/09/28 05:30:07;;;;;;;24.77;17.23;;;487.10;2380.80;;;;;;4879681;29;20144;-80
2021/09/28 05:32:33;;;;;;;27.60;16.80;;;487.00;2380.80;;;;;;4863271;29;20394;-80
2021/09/28 05:34:59;;;;;;;29.05;18.27;;;487.10;2380.80;;;;;;4863481;29;20021;-83
2021/09/28 05:37:25;;;;;;;24.63;17.17;;;487.10;2380.80;;;;;;4886305;29;20484;-82
2021/09/28 05:39:51;;;;;;;29.45;19.52;;;487.10;2380.80;;;;;;4869906;29;20035;-82
2021/09/28 05:42:17;;;;;;;28.33;18.95;;;487.10;2380.80;;;;;;4883899;29;20029;-82
2021/09/28 05:44:42;;;;;;;32.75;20.55;;;487.10;2380.80;;;;;;4887305;29;20033;-78
2021/09/28 05:47:08;;;;;;;29.20;20.08;;;487.20;2380.80;;;;;;4892954;29;20033;-81
2021/09/28 05:49:34;;;;;;;28.75;19.25;;;487.20;2380.80;;;;;;4879791;29;20029;-80
2021/09/28 05:52:01;;;;;;;29.08;19.20;;;487.20;2380.80;;;;;;4879456;29;20033;-81
2021/09/28 05:54:27;;;;;;;27.33;18.52;;;487.20;2380.80;;;;;;4862952;29;20067;-81
2021/09/28 05:56:54;;;;;;;28.23;18.60;;;487.20;2380.80;;;;;;4879422;29;20045;-82
2021/09/28 05:59:20;;;;;;;24.63;17.80;;;487.10;2380.80;;;;;;4862796;29;20120;-78
2021/09/28 06:01:48;;;;;;;25.67;17.83;;;487.20;2380.80;;;;;;4879583;29;20025;-83
2021/09/28 06:04:14;;;;;;;24.27;17.58;;;487.20;2380.80;;;;;;4861828;29;20339;-81
2021/09/28 06:06:41;;;;;;;28.30;17.65;;;487.20;2380.80;;;;;;4863127;29;20036;-79
2021/09/28 06:09:07;;;;;;;28.83;18.77;;;487.20;2380.80;;;;;;4862666;29;20036;-83
2021/09/28 06:11:32;;;;;;;25.02;16.45;;;487.20;2380.80;;;;;;4863008;29;20493;-82
2021/09/28 06:13:59;;;;;;;25.58;18.15;;;487.20;2380.80;;;;;;4847915;29;20087;-83
2021/09/28 06:16:24;;;;;;;26.05;18.50;;;487.20;2380.80;;;;;;4860778;29;20088;-82
2021/09/28 06:18:50;;;;;;;26.13;17.05;;;487.10;2380.80;;;;;;4844262;29;20423;-83
2021/09/28 06:21:16;;;;;;;24.25;17.92;;;487.20;2380.80;;;;;;4860684;29;20033;-83
2021/09/28 06:23:42;;;;;;;22.35;17.60;;;487.20;2380.80;;;;;;4860673;29;20021;-80
2021/09/28 06:26:08;;;;;;;23.98;17.88;;;487.20;2380.80;;;;;;4851245;29;20092;-82
2021/09/28 06:28:36;;;;;;;26.17;19.02;;;487.10;2380.80;;;;;;4869022;29;20105;-81
2021/09/28 06:31:02;;;;;;;32.67;19.42;;;487.20;2380.80;;;;;;4871344;29;20058;-81
2021/09/28 06:33:28;;;;;;;26.48;19.45;;;487.20;2380.80;;;;;;4873529;29;20057;-82
2021/09/28 06:35:53;;;;;;;28.35;19.98;;;487.20;2380.80;;;;;;4844029;29;20034;-83
2021/09/28 06:38:19;;;;;;;26.67;19.25;;;487.30;2380.80;;;;;;4843824;29;20044;-82
2021/09/28 06:40:45;;;;;;;28.80;19.52;;;487.30;2380.80;;;;;;4860266;29;20029;-81
2021/09/28 06:43:11;;;;;;;35.95;20.92;;;487.30;2380.80;;;;;;4860050;29;20089;-76
2021/09/28 06:45:37;;;;;;;31.30;20.92;;;487.30;2380.80;;;;;;4864606;29;20394;-82
2021/09/28 06:48:02;;;;;;;30.77;22.00;;;487.30;2380.80;;;;;;4865242;29;20064;-82
2021/09/28 06:50:28;;;;;;;34.70;21.80;;;487.20;2380.80;;;;;;4870245;29;20104;-80
2021/09/28 06:52:54;;;;;;;34.25;22.25;;;487.20;2380.80;;;;;;4863708;29;20022;-82
2021/09/28 06:55:21;;;;;;;29.35;20.98;;;487.20;2380.80;;;;;;4862415;29;20033;-83
2021/09/28 06:57:46;;;;;;;31.35;21.08;;;487.20;2380.80;;;;;;4870713;29;20033;-81
2021/09/28 07:00:12;;;;;;;30.00;22.38;;;487.10;2380.80;;;;;;4860459;29;20030;-82
2021/09/28 07:02:38;;;;;;;33.47;21.90;;;487.10;2380.80;;;;;;4843620;29;20030;-83
2021/09/28 07:05:13;;;;;;;32.30;22.48;;;487.10;2380.80;;;;;;4860300;29;20364;-81
2021/09/28 07:07:39;;;;;;;32.30;22.05;;;487.10;2380.80;;;;;;4843447;29;20029;-82
2021/09/28 07:10:07;;;;;;;34.15;23.83;;;487.10;2380.80;;;;;;4860371;29;20029;-83
2021/09/28 07:12:33;;;;;;;42.08;24.00;;;487.10;2380.80;;;;;;4863250;29;20172;-82
2021/09/28 07:15:01;;;;;;;35.58;24.33;;;487.00;2380.80;;;;;;4878928;29;20105;-77
2021/09/28 07:17:27;;;;;;;35.05;23.92;;;487.00;2380.80;;;;;;4865513;29;20476;-81
2021/09/28 07:19:53;;;;;;;35.90;23.83;;;486.90;2380.80;;;;;;4881997;29;20096;-82
2021/09/28 07:22:19;;;;;;;41.53;26.63;;;486.80;2380.80;;;;;;4882437;29;20382;-83
2021/09/28 07:24:44;;;;;;;36.20;24.60;;;486.90;2380.80;;;;;;4865599;29;20489;-82
2021/09/28 07:27:10;;;;;;;39.17;26.13;;;486.90;2380.80;;;;;;4882521;29;20064;-82
2021/09/28 07:29:36;;;;;;;34.33;24.25;;;486.90;2380.80;;;;;;4882352;29;20526;-82
2021/09/28 07:32:02;;;;;;;38.67;25.88;;;487.00;2380.80;;;;;;4870663;29;20470;-82
2021/09/28 07:34:28;;;;;;;37.08;25.23;;;487.00;2380.80;;;;;;4892270;29;20096;-81
2021/09/28 07:36:54;;;;;;;39.05;26.17;;;487.00;2380.80;;;;;;4891164;29;20136;-83
2021/09/28 07:39:19;;;;;;;40.38;25.27;;;487.00;2380.80;;;;;;4891267;29;20064;-82
2021/09/28 07:41:45;;;;;;;38.03;24.33;;;487.00;2380.80;;;;;;4874973;29;20036;-82
2021/09/28 07:44:11;;;;;;;39.00;26.80;;;487.00;2380.80;;;;;;4865184;29;20029;-82
2021/09/28 07:46:36;;;;;;;42.28;27.35;;;487.00;2380.80;;;;;;4873981;29;20476;-82
2021/09/28 07:49:03;;;;;;;41.97;27.55;;;487.00;2380.80;;;;;;4893578;29;20033;-82
2021/09/28 07:51:29;;;;;;;43.03;27.48;;;487.00;2380.80;;;;;;4881794;29;20116;-88
2021/09/28 07:53:55;;;;;;;39.85;25.88;;;487.10;2380.80;;;;;;4881987;29;20552;-85
2021/09/28 07:56:21;;;;;;;35.25;23.70;;;487.10;2380.80;;;;;;4865484;29;20173;-89
2021/09/28 07:58:48;;;;;;;35.13;23.80;;;487.10;2380.80;;;;;;4881910;29;20029;-84
2021/09/28 08:01:14;;;;;;;38.00;24.98;;;487.30;2380.80;;;;;;4865135;29;20051;-78
2021/09/28 08:03:39;;;;;;;36.03;23.58;;;487.10;2380.80;;;;;;4881816;29;20035;-89
2021/09/28 08:06:05;;;;;;;41.08;26.38;;;487.10;2380.80;;;;;;4881624;29;20021;-87
2021/09/28 08:08:31;;;;;;;40.22;25.77;;;487.10;2380.80;;;;;;4888738;29;20038;-83
2021/09/28 08:10:57;;;;;;;40.65;26.60;;;487.10;2380.80;;;;;;4889770;29;20386;-85
2021/09/28 08:13:23;;;;;;;42.10;26.80;;;487.10;2380.80;;;;;;4872404;29;20111;-84
2021/09/28 08:15:49;;;;;;;44.60;25.73;;;487.10;2380.80;;;;;;4865631;29;20029;-77
2021/09/28 08:18:16;;;;;;;41.50;23.65;;;487.10;2380.80;;;;;;4868905;29;20121;-81
2021/09/28 08:20:45;;;;;;;39.38;26.02;;;487.20;2380.80;;;;;;4871888;29;20033;-81
2021/09/28 08:23:13;;;;;;;49.67;26.67;;;487.20;2380.80;;;;;;4869191;29;20033;-80
2021/09/28 08:31:02;;;;;;;37.22;25.38;;;487.20;2380.80;;;;;;4870200;29;20032;-79
2021/09/28 08:33:29;;;;;;;42.72;25.52;;;487.20;2380.80;;;;;;4870238;29;20026;-80
2021/09/28 08:35:55;;;;;;;37.55;25.88;;;487.30;2380.80;;;;;;4880320;29;20029;-80
2021/09/28 08:38:20;;;;;;;40.33;25.55;;;487.30;2380.80;;;;;;4879211;29;20093;-80
2021/09/28 08:40:46;;;;;;;44.65;26.52;;;487.20;2380.80;;;;;;4864240;29;20108;-79
2021/09/28 08:43:12;;;;;;;41.28;25.77;;;487.30;2380.80;;;;;;4870520;29;20042;-81
2021/09/28 08:45:38;;;;;;;35.03;24.55;;;487.30;2380.80;;;;;;4870933;29;20049;-78
2021/09/28 08:48:04;;;;;;;45.97;29.77;;;512.00;2380.80;;;;;;4870331;29;20025;-80
2021/09/28 08:50:29;;;;;;;37.97;25.45;;;512.00;2380.80;;;;;;4871674;29;20025;-79
2021/09/28 08:52:55;;;;;;;45.92;26.00;;;487.30;2380.80;;;;;;4861383;29;20085;-79
2021/09/28 08:55:22;;;;;;;38.83;24.02;;;512.00;2380.80;;;;;;4861786;29;20395;-80
2021/09/28 08:57:49;;;;;;;38.72;25.67;;;512.00;2380.80;;;;;;4861505;29;20037;-79
2021/09/28 09:00:18;;;;;;;42.97;25.67;;;512.00;2380.80;;;;;;4860434;29;20403;-79
2021/09/28 09:02:45;;;;;;;41.70;24.33;;;512.00;2380.80;;;;;;4859996;29;20035;-79
2021/09/28 09:05:13;;;;;;;38.58;23.50;;;512.00;2380.80;;;;;;4861270;29;20025;-79
2021/09/28 09:07:40;;;;;;;35.55;23.00;;;487.30;2380.80;;;;;;4861466;29;20025;-79
2021/09/28 09:10:07;;;;;;;36.65;22.70;;;512.00;2380.80;;;;;;4860051;29;20033;-78
2021/09/28 09:12:34;;;;;;;32.45;22.83;;;512.00;2380.80;;;;;;4865153;29;20060;-77
2021/09/28 09:15:21;;;;;;;31.35;20.33;;;512.00;2380.80;;;;;;4863074;29;20450;-79
2021/09/28 09:17:50;;;;;;;35.03;21.90;;;512.10;2380.80;;;;;;4879432;29;20152;-79
2021/09/28 09:20:43;;;;;;;33.58;22.00;;;512.10;2380.80;;;;;;4879911;29;20025;-79
2021/09/28 09:23:35;;;;;;;28.27;19.35;;;512.10;2380.80;;;;;;4860479;29;20100;-79
2021/09/28 09:26:08;;;;;;;31.17;19.45;;;512.30;2380.80;;;;;;4879474;29;20024;-78
2021/09/28 09:28:43;;;;;;;27.77;20.45;;;512.30;2380.80;;;;;;4879555;29;20029;-80
2021/09/28 09:31:17;;;;;;;27.02;20.40;;;512.40;2380.80;;;;;;4879512;29;20029;-80
2021/09/28 09:33:45;;;;;;;29.27;20.45;;;512.50;2380.80;;;;;;4892468;29;20029;-79
2021/09/28 09:36:16;;;;;;;34.80;20.15;;;512.50;2380.80;;;;;;4879811;29;20033;-78
2021/09/28 09:38:47;;;;;;;32.85;21.55;;;512.50;2380.80;;;;;;4891485;29;20036;-80
2021/09/28 09:41:14;;;;;;;32.10;19.08;;;512.60;2380.80;;;;;;4879511;29;20032;-79
2021/09/28 09:43:40;;;;;;;24.33;17.63;;;512.70;2380.80;;;;;;4862533;29;20040;-80
2021/09/28 09:46:10;;;;;;;27.42;16.90;;;512.70;2380.80;;;;;;4855266;29;20096;-78
2021/09/28 09:48:37;;;;;;;24.48;15.45;;;512.80;2380.80;;;;;;4874851;29;20104;-86
2021/09/28 09:51:13;;;;;;;21.88;16.13;;;512.80;2380.80;;;;;;4862898;29;20040;-79
2021/09/28 09:53:59;;;;;;;24.65;15.20;;;512.90;2380.80;;;;;;4879168;29;20036;-78
2021/09/28 09:56:52;;;;;;;24.90;14.57;;;512.90;2380.80;;;;;;4879443;29;20118;-80
2021/09/28 09:59:24;;;;;;;19.80;13.52;;;537.60;2406.40;;;;;;4878998;29;20033;-78
2021/09/28 10:01:52;;;;;;;24.40;15.32;;;537.60;2406.40;;;;;;4879548;29;20029;-80
2021/09/28 10:04:19;;;;;;;25.33;16.23;;;537.70;2406.40;;;;;;4879139;29;20029;-78
2021/09/28 10:06:46;;;;;;;24.38;15.95;;;537.80;2406.40;;;;;;4879013;29;20036;-79
2021/09/28 10:09:22;;;;;;;24.88;15.40;;;537.90;2406.40;;;;;;4878907;29;20049;-79
2021/09/28 10:11:56;;;;;;;23.75;14.73;;;537.80;2406.40;;;;;;4862327;29;20035;-80
2021/09/28 10:14:30;;;;;;;25.55;16.30;;;537.90;2406.40;;;;;;4859459;29;20049;-81
2021/09/28 10:16:59;;;;;;;21.85;15.95;;;537.90;2406.40;;;;;;4859396;29;20040;-81
2021/09/28 10:19:28;;;;;;;23.05;15.25;;;538.00;2406.40;;;;;;4858935;29;20391;-80
2021/09/28 10:21:55;;;;;;;21.92;15.50;;;538.00;2406.40;;;;;;4860579;29;20013;-80
2021/09/28 10:24:21;;;;;;;19.25;14.48;;;538.00;2406.40;;;;;;4860210;29;20069;-80
2021/09/28 10:27:07;;;;;;;22.90;16.70;;;538.00;2406.40;;;;;;4860347;29;20529;-78
2021/09/28 10:29:40;;;;;;;24.30;15.37;;;538.00;2406.40;;;;;;4860360;29;20108;-81
2021/09/28 10:32:24;;;;;;;26.58;15.80;;;538.00;2406.40;;;;;;4860047;29;20089;-81
2021/09/28 10:35:06;;;;;;;21.30;14.95;;;538.00;2406.40;;;;;;4860294;29;20105;-81
2021/09/28 10:37:50;;;;;;;20.92;14.48;;;538.10;2406.40;;;;;;4849713;29;20037;-79
2021/09/28 10:40:17;;;;;;;22.77;14.75;;;538.00;2406.40;;;;;;4860668;29;20033;-80
2021/09/28 10:42:51;;;;;;;23.85;15.43;;;538.00;2406.40;;;;;;4861038;29;20048;-81
2021/09/28 10:45:29;;;;;;;22.98;14.70;;;537.90;2406.40;;;;;;4860368;29;20026;-81
2021/09/28 10:48:11;;;;;;;24.55;16.70;;;537.70;2406.40;;;;;;4859812;29;20509;-80
2021/09/28 10:50:38;;;;;;;25.95;15.95;;;537.70;2406.40;;;;;;4859701;29;20386;-79
2021/09/28 10:53:20;;;;;;;24.70;17.10;;;537.70;2406.40;;;;;;4866440;29;20041;-81
2021/09/28 10:56:15;;;;;;;21.23;16.42;;;537.80;2406.40;;;;;;4860692;29;20021;-80
2021/09/28 10:58:51;;;;;;;21.98;16.95;;;537.90;2406.40;;;;;;4867845;29;20034;-80
2021/09/28 11:01:20;;;;;;;32.13;22.27;;;538.00;2406.40;;;;;;4866059;29;20478;-78
2021/09/28 11:03:55;;;;;;;31.85;21.38;;;538.00;2406.40;;;;;;4867708;29;20029;-80
2021/09/28 11:06:42;;;;;;;32.90;21.67;;;538.00;2406.40;;;;;;4867871;29;20033;-77
2021/09/28 11:09:09;;;;;;;28.05;20.45;;;537.90;2406.40;;;;;;4865812;29;20142;-79
2021/09/28 11:11:36;;;;;;;29.13;19.02;;;537.90;2406.40;;;;;;4868033;29;20021;-80
2021/09/28 11:14:04;;;;;;;26.95;19.45;;;538.00;2406.40;;;;;;4884671;29;20147;-78
2021/09/28 11:17:11;;;;;;;30.10;19.10;;;538.10;2406.40;;;;;;4886748;29;20028;-76
2021/09/28 11:19:38;;;;;;;25.77;17.10;;;538.20;2406.40;;;;;;4810961;29;20041;-80
2021/09/28 11:22:06;;;;;;;25.50;18.00;;;538.20;2406.40;;;;;;4797755;29;20090;-79
2021/09/28 11:24:32;;;;;;;22.35;16.88;;;538.30;2406.40;;;;;;4794759;29;20031;-83
2021/09/28 11:27:05;;;;;;;23.08;16.67;;;538.30;2406.40;;;;;;4811845;29;20027;-77
2021/09/28 11:29:32;;;;;;;32.75;16.85;;;538.30;2406.40;;;;;;4811768;29;20031;-80
2021/09/28 11:31:58;;;;;;;23.83;17.65;;;538.20;2406.40;;;;;;4812946;29;20520;-83
2021/09/28 11:34:32;;;;;;;24.67;17.60;;;538.20;2406.40;;;;;;4815301;29;20064;-77
2021/09/28 11:37:03;;;;;;;23.15;16.85;;;538.20;2406.40;;;;;;4810065;29;20229;-81
2021/09/28 11:39:48;;;;;;;22.60;16.63;;;538.20;2406.40;;;;;;4811198;29;20057;-78
2021/09/28 11:42:14;;;;;;;25.38;17.33;;;538.20;2406.40;;;;;;4794328;29;20042;-81
2021/09/28 11:44:43;;;;;;;23.27;18.30;;;538.20;2406.40;;;;;;4805517;29;20745;-79
2021/09/28 11:47:13;;;;;;;28.55;20.08;;;538.20;2406.40;;;;;;4806588;29;20551;-81
2021/09/28 11:49:51;;;;;;;28.27;19.63;;;538.10;2406.40;;;;;;4794442;29;20393;-80
2021/09/28 11:52:17;;;;;;;25.45;19.83;;;538.10;2406.40;;;;;;4810685;29;20030;-78
2021/09/28 11:54:44;;;;;;;23.35;18.30;;;538.10;2406.40;;;;;;4829619;29;20044;-78
2021/09/28 11:57:11;;;;;;;25.33;16.60;;;538.10;2406.40;;;;;;4877525;29;20037;-79
2021/09/28 11:59:37;;;;;;;23.23;16.60;;;538.50;2406.40;;;;;;4860939;29;20017;-78
2021/09/28 12:02:03;;;;;;;20.83;14.95;;;538.10;2406.40;;;;;;4878029;29;20040;-79
2021/09/28 12:09:34;;;;;;;15.77;11.88;;;538.00;2406.40;;;;;;4890461;29;20028;-77
2021/09/28 12:12:05;;;;;;;17.98;13.27;;;538.00;2406.40;;;;;;4888552;29;20029;-78